Time;durP1;ratioP1;P1;durP2;ratioP2;P2;SDS_P1;SDS_P2;PMS_P1;PMS_P2;Temp;Humidity;BMP_temperature;BMP_pressure;BME280_temperature;BME280_humidity;BME280_pressure;Samples;Min_cycle;Max_cycle;Signal;HPM_P1;HPM_P2
2023/01/02 00:00:50;;;;;;;13.85;6.35;;;11.40;99.90;;;;;;5044930;28;20029;-71
2023/01/02 00:03:16;;;;;;;15.23;5.97;;;11.40;99.90;;;;;;5042809;28;20503;-70
2023/01/02 00:05:42;;;;;;;12.27;6.40;;;11.40;99.90;;;;;;5044767;28;20052;-70
2023/01/02 00:08:08;;;;;;;11.05;6.25;;;11.40;99.90;;;;;;5035500;28;20021;-71
2023/01/02 00:10:34;;;;;;;13.98;6.60;;;11.40;99.90;;;;;;5052172;28;20086;-71
2023/01/02 00:12:59;;;;;;;9.55;5.97;;;11.50;99.90;;;;;;5051275;28;20009;-71
2023/01/02 00:15:25;;;;;;;14.68;6.63;;;11.40;99.90;;;;;;5049823;28;20441;-70
2023/01/02 00:17:50;;;;;;;11.15;6.10;;;11.40;99.90;;;;;;5051436;28;20461;-70
2023/01/02 00:20:16;;;;;;;11.25;6.55;;;11.40;99.90;;;;;;5051319;28;20031;-71
2023/01/02 00:22:41;;;;;;;14.18;6.80;;;11.40;99.90;;;;;;5051747;28;20514;-70
2023/01/02 00:25:08;;;;;;;16.17;6.35;;;11.40;99.90;;;;;;5039093;28;20493;-70
2023/01/02 00:27:34;;;;;;;14.85;6.70;;;11.40;99.90;;;;;;5050970;28;20048;-71
2023/01/02 00:29:59;;;;;;;9.45;6.72;;;11.40;99.90;;;;;;5051308;28;20032;-71
2023/01/02 00:32:25;;;;;;;14.07;6.22;;;11.40;99.90;;;;;;5051119;28;20033;-70
2023/01/02 00:34:50;;;;;;;15.95;7.22;;;11.40;99.90;;;;;;5037788;28;20529;-70
2023/01/02 00:37:16;;;;;;;19.73;7.95;;;11.40;99.90;;;;;;5052111;28;20061;-71
2023/01/02 00:39:41;;;;;;;11.88;7.30;;;11.30;99.90;;;;;;5051182;28;20017;-71
2023/01/02 00:42:07;;;;;;;13.27;7.05;;;11.40;99.90;;;;;;5051863;28;20469;-71
2023/01/02 00:44:32;;;;;;;10.48;6.70;;;11.30;99.90;;;;;;5052142;28;20048;-70
2023/01/02 00:46:58;;;;;;;10.18;6.43;;;11.40;99.90;;;;;;5051247;28;20024;-70
2023/01/02 00:49:24;;;;;;;16.52;7.25;;;11.40;99.90;;;;;;5052330;28;20029;-70
2023/01/02 00:51:49;;;;;;;9.18;5.90;;;11.40;99.90;;;;;;5051809;28;20044;-71
2023/01/02 00:54:15;;;;;;;9.90;7.20;;;11.40;99.90;;;;;;5051162;28;20033;-70
2023/01/02 00:56:40;;;;;;;12.90;6.40;;;11.40;99.90;;;;;;5051777;28;20108;-70
2023/01/02 00:59:06;;;;;;;13.43;6.75;;;11.40;99.90;;;;;;5052272;28;20373;-70
2023/01/02 01:01:31;;;;;;;12.23;6.53;;;11.50;99.90;;;;;;5051609;28;20053;-72
2023/01/02 01:03:57;;;;;;;7.72;6.35;;;11.40;99.90;;;;;;5051335;28;20108;-70
2023/01/02 01:06:22;;;;;;;13.38;7.13;;;11.50;99.90;;;;;;5056604;28;20021;-72
2023/01/02 01:08:48;;;;;;;10.77;6.15;;;11.50;99.90;;;;;;5055204;28;20048;-70
2023/01/02 01:11:17;;;;;;;12.85;6.00;;;11.50;99.90;;;;;;5061183;28;20096;-71
2023/01/02 01:13:43;;;;;;;12.40;6.72;;;11.60;99.90;;;;;;5058394;28;20548;-71
2023/01/02 01:16:17;;;;;;;17.00;7.40;;;11.50;99.90;;;;;;5055891;28;20036;-70
2023/01/02 01:18:44;;;;;;;15.57;7.60;;;11.60;99.90;;;;;;5054924;28;20024;-70
2023/01/02 01:21:19;;;;;;;11.57;7.25;;;11.60;99.90;;;;;;5055531;28;20559;-71
2023/01/02 01:23:50;;;;;;;13.13;7.00;;;11.60;99.90;;;;;;5055812;28;20036;-71
2023/01/02 01:26:16;;;;;;;;;;;11.50;99.90;;;;;;5055960;28;20413;-71
2023/01/02 01:28:41;;;;;;;16.00;6.72;;;11.50;99.90;;;;;;5054546;28;19905;-70
2023/01/02 01:31:12;;;;;;;14.32;6.70;;;11.50;99.90;;;;;;5055344;28;20025;-71
2023/01/02 01:33:41;;;;;;;12.88;7.55;;;11.60;99.90;;;;;;5045713;28;20374;-70
2023/01/02 01:36:09;;;;;;;15.25;7.95;;;11.60;99.90;;;;;;5050488;28;20044;-71
2023/01/02 01:38:35;;;;;;;14.07;6.47;;;11.60;99.90;;;;;;5055838;28;20112;-71
2023/01/02 01:41:01;;;;;;;16.13;7.15;;;11.50;99.90;;;;;;5055427;28;20470;-71
2023/01/02 01:43:43;;;;;;;14.00;7.10;;;11.60;99.90;;;;;;5054975;28;20048;-70
2023/01/02 01:46:34;;;;;;;13.43;7.13;;;11.60;99.90;;;;;;5054687;28;20025;-71
2023/01/02 01:49:05;;;;;;;12.75;6.03;;;11.50;99.90;;;;;;5055143;28;20028;-71
2023/01/02 01:51:36;;;;;;;10.82;6.82;;;11.50;99.90;;;;;;5053956;28;20041;-70
2023/01/02 01:54:08;;;;;;;11.80;6.75;;;11.50;99.90;;;;;;5054717;28;20021;-70
2023/01/02 01:56:37;;;;;;;10.15;6.22;;;11.60;99.90;;;;;;5053707;28;20041;-71
2023/01/02 01:59:03;;;;;;;14.40;6.63;;;11.70;99.90;;;;;;5054648;28;20417;-71
2023/01/02 02:01:29;;;;;;;11.13;5.93;;;11.70;99.90;;;;;;5053935;28;20029;-71
2023/01/02 02:03:56;;;;;;;11.45;6.68;;;11.70;99.90;;;;;;5053780;28;20035;-70
2023/01/02 02:06:21;;;;;;;14.52;6.50;;;11.70;99.90;;;;;;5053755;28;20056;-70
2023/01/02 02:08:47;;;;;;;8.48;6.45;;;11.70;99.90;;;;;;5053464;28;20052;-71
2023/01/02 02:11:13;;;;;;;13.95;6.05;;;11.70;99.90;;;;;;5053090;28;20021;-70
2023/01/02 02:13:40;;;;;;;10.05;6.80;;;11.70;99.90;;;;;;5053937;28;20059;-70
2023/01/02 02:16:06;;;;;;;11.13;6.63;;;11.70;99.90;;;;;;5053357;28;20064;-70
2023/01/02 02:19:13;;;;;;;11.52;6.53;;;11.70;99.90;;;;;;5053676;28;20051;-72
2023/01/02 02:21:51;;;;;;;9.73;5.95;;;11.70;99.90;;;;;;5052856;28;20037;-71
2023/01/02 02:24:28;;;;;;;15.10;6.18;;;11.80;99.90;;;;;;5054084;28;20020;-71
2023/01/02 02:27:32;;;;;;;10.48;6.20;;;11.70;99.90;;;;;;5052643;28;20484;-71
2023/01/02 02:30:06;;;;;;;10.65;5.88;;;11.80;99.90;;;;;;5053631;28;20025;-69
2023/01/02 02:32:57;;;;;;;10.63;5.78;;;11.70;99.90;;;;;;5053003;28;20054;-70
2023/01/02 02:35:25;;;;;;;12.15;5.85;;;11.70;99.90;;;;;;5044111;28;20041;-71
2023/01/02 02:38:03;;;;;;;15.50;7.50;;;11.60;99.90;;;;;;5053795;28;20024;-71
2023/01/02 02:40:38;;;;;;;11.55;5.90;;;11.80;99.90;;;;;;5045794;28;20040;-71
2023/01/02 02:43:35;;;;;;;19.08;7.32;;;11.80;99.90;;;;;;5033607;28;20083;-71
2023/01/02 02:46:26;;;;;;;11.15;5.88;;;11.80;99.90;;;;;;5036752;28;20059;-71
2023/01/02 02:49:12;;;;;;;13.77;5.85;;;11.90;99.90;;;;;;5033196;28;20037;-70
2023/01/02 02:51:55;;;;;;;12.50;5.68;;;11.90;99.90;;;;;;5043137;28;20086;-71
2023/01/02 02:54:27;;;;;;;17.75;7.90;;;11.90;99.90;;;;;;5052883;28;20043;-71
2023/01/02 02:56:55;;;;;;;13.43;5.60;;;12.00;99.90;;;;;;5053113;28;20044;-71
2023/01/02 02:59:22;;;;;;;13.43;6.10;;;12.00;99.90;;;;;;5039408;28;20068;-70
2023/01/02 03:01:47;;;;;;;17.08;7.80;;;12.10;99.90;;;;;;5052525;28;20412;-70
2023/01/02 03:04:21;;;;;;;12.60;5.13;;;12.20;99.90;;;;;;5053083;28;20017;-71
2023/01/02 03:07:24;;;;;;;9.05;5.00;;;12.20;99.90;;;;;;5052369;28;20029;-71
2023/01/02 03:10:16;;;;;;;12.52;5.15;;;12.30;99.90;;;;;;5052985;28;20024;-71
2023/01/02 03:13:02;;;;;;;13.57;5.55;;;12.40;99.90;;;;;;5053423;28;20029;-71
2023/01/02 03:15:44;;;;;;;8.85;5.35;;;12.40;99.90;;;;;;5043716;28;20398;-70
2023/01/02 03:18:38;;;;;;;12.77;5.38;;;12.40;99.90;;;;;;5049770;28;20166;-70
2023/01/02 03:21:15;;;;;;;11.43;5.35;;;12.40;99.90;;;;;;5033934;28;20090;-71
2023/01/02 03:23:44;;;;;;;11.68;5.90;;;12.40;99.90;;;;;;5036656;28;20037;-71
2023/01/02 03:26:14;;;;;;;7.07;4.55;;;12.40;99.90;;;;;;5043587;28;20069;-71
2023/01/02 03:28:43;;;;;;;13.37;4.83;;;12.40;99.90;;;;;;5038943;28;20038;-70
2023/01/02 03:31:14;;;;;;;13.65;5.13;;;12.40;99.90;;;;;;5048754;28;20271;-71
2023/01/02 03:33:45;;;;;;;16.17;5.72;;;12.50;99.90;;;;;;5051405;28;20044;-70
2023/01/02 03:36:21;;;;;;;10.60;5.60;;;12.40;99.90;;;;;;5047211;28;20045;-71
2023/01/02 03:38:58;;;;;;;8.90;5.07;;;12.50;99.90;;;;;;5041233;28;20495;-71
2023/01/02 03:41:29;;;;;;;13.60;5.43;;;12.60;99.90;;;;;;5051526;28;20115;-70
2023/01/02 03:43:57;;;;;;;10.43;4.70;;;12.60;99.90;;;;;;5051480;28;20056;-70
2023/01/02 03:46:47;;;;;;;7.93;4.50;;;12.70;99.90;;;;;;5052325;28;20040;-71
2023/01/02 03:49:30;;;;;;;13.77;4.97;;;12.60;99.90;;;;;;5051658;28;20534;-71
2023/01/02 03:51:56;;;;;;;8.80;3.80;;;12.70;99.90;;;;;;5052351;28;20044;-71
2023/01/02 03:54:22;;;;;;;10.05;4.03;;;12.70;99.90;;;;;;5041089;28;20108;-70
2023/01/02 03:56:57;;;;;;;6.93;4.10;;;12.80;99.90;;;;;;5050207;28;20029;-71
2023/01/02 03:59:47;;;;;;;13.45;4.60;;;12.70;99.90;;;;;;5052560;28;20036;-71
2023/01/02 04:02:42;;;;;;;14.15;4.45;;;12.70;99.90;;;;;;5052569;28;20021;-70
2023/01/02 04:05:17;;;;;;;9.77;4.43;;;12.80;99.90;;;;;;5050986;28;20393;-71
2023/01/02 04:07:57;;;;;;;12.23;4.75;;;12.80;99.90;;;;;;5052439;28;20039;-70
2023/01/02 04:10:23;;;;;;;11.70;4.30;;;12.70;99.90;;;;;;5051418;28;20032;-71
2023/01/02 04:12:52;;;;;;;6.78;4.00;;;12.70;99.90;;;;;;5052563;28;20024;-71
2023/01/02 04:15:25;;;;;;;10.60;4.13;;;12.60;99.90;;;;;;5052369;28;20048;-72
2023/01/02 04:18:07;;;;;;;12.35;4.72;;;12.60;99.90;;;;;;5051724;28;20025;-70
2023/01/02 04:20:38;;;;;;;10.63;4.00;;;12.70;99.90;;;;;;5052157;28;20029;-71
2023/01/02 04:23:11;;;;;;;13.73;4.05;;;12.70;99.90;;;;;;5052129;28;20032;-70
2023/01/02 04:25:51;;;;;;;7.80;4.25;;;12.70;99.90;;;;;;5049436;28;20032;-71
2023/01/02 04:28:27;;;;;;;10.32;4.30;;;12.70;99.90;;;;;;5043249;28;20083;-71
2023/01/02 04:31:19;;;;;;;8.43;4.60;;;12.70;99.90;;;;;;5044329;28;20120;-71
2023/01/02 04:33:48;;;;;;;10.35;4.50;;;12.70;99.90;;;;;;5050735;28;20490;-71
2023/01/02 04:36:15;;;;;;;12.15;5.00;;;12.70;99.90;;;;;;5049323;28;20039;-70
2023/01/02 04:38:41;;;;;;;11.55;4.85;;;12.60;99.90;;;;;;5039969;28;20026;-70
2023/01/02 04:41:08;;;;;;;6.32;4.65;;;12.60;99.90;;;;;;5038343;28;20028;-70
2023/01/02 04:43:34;;;;;;;8.43;5.13;;;12.60;99.90;;;;;;5040196;28;20025;-71
2023/01/02 04:45:59;;;;;;;13.77;6.00;;;12.60;99.90;;;;;;5039399;28;20042;-70
2023/01/02 04:48:25;;;;;;;8.45;4.97;;;12.60;99.90;;;;;;5040977;28;20065;-71
2023/01/02 04:50:53;;;;;;;16.05;5.30;;;12.60;99.90;;;;;;5038925;28;20017;-71
2023/01/02 04:53:19;;;;;;;7.60;4.70;;;12.70;99.90;;;;;;5044811;28;20025;-71
2023/01/02 04:55:45;;;;;;;10.85;4.75;;;12.70;99.90;;;;;;5046399;28;20056;-71
2023/01/02 04:58:10;;;;;;;12.93;5.50;;;12.70;99.90;;;;;;5037994;28;20025;-72
2023/01/02 05:00:36;;;;;;;17.95;5.28;;;12.60;99.90;;;;;;5038057;28;20485;-70
2023/01/02 05:03:02;;;;;;;8.95;4.82;;;12.60;99.90;;;;;;5038053;28;20030;-71
2023/01/02 05:05:28;;;;;;;11.63;5.63;;;12.60;99.90;;;;;;5038382;28;20045;-70
2023/01/02 05:07:54;;;;;;;11.57;5.22;;;12.60;99.90;;;;;;5037304;28;20482;-70
2023/01/02 05:10:19;;;;;;;9.00;5.15;;;12.60;99.90;;;;;;5038164;28;20107;-70
2023/01/02 05:12:45;;;;;;;6.20;5.60;;;12.60;99.90;;;;;;5038378;28;20033;-71
2023/01/02 05:15:11;;;;;;;4.75;3.85;;;12.60;99.90;;;;;;5037326;28;20018;-72
2023/01/02 05:17:41;;;;;;;2.75;2.55;;;12.20;99.90;;;;;;5037950;28;20022;-69
2023/01/02 05:20:09;;;;;;;4.05;2.75;;;11.90;99.90;;;;;;5037422;28;20079;-70
2023/01/02 05:25:21;;;;;;;1.95;1.80;;;11.40;99.90;;;;;;5041599;28;20484;-71
2023/01/02 05:27:46;;;;;;;2.85;1.90;;;11.10;99.90;;;;;;5047174;28;20076;-72
2023/01/02 05:30:12;;;;;;;2.70;2.00;;;10.90;99.90;;;;;;5049629;28;20383;-71
2023/01/02 05:32:38;;;;;;;1.95;1.80;;;10.80;99.90;;;;;;5057286;28;20070;-71
2023/01/02 05:35:04;;;;;;;2.15;1.95;;;10.70;99.90;;;;;;5057016;28;20032;-71
2023/01/02 05:37:30;;;;;;;2.05;1.95;;;10.60;99.90;;;;;;5057581;28;20456;-71
2023/01/02 05:39:56;;;;;;;2.63;2.35;;;10.50;99.90;;;;;;5058037;28;20416;-71
2023/01/02 05:42:21;;;;;;;2.75;2.55;;;10.40;99.90;;;;;;5057272;28;20055;-70
2023/01/02 05:44:48;;;;;;;2.38;2.17;;;10.40;99.90;;;;;;5058420;28;20469;-72
2023/01/02 05:47:13;;;;;;;2.30;2.10;;;10.40;99.90;;;;;;5057379;28;20033;-71
2023/01/02 05:49:39;;;;;;;2.47;2.28;;;10.30;99.90;;;;;;5057356;28;20091;-71
2023/01/02 05:52:04;;;;;;;2.88;1.90;;;10.30;99.90;;;;;;5054326;28;20040;-71
2023/01/02 05:54:30;;;;;;;2.53;2.35;;;10.30;99.90;;;;;;5055391;28;20472;-70
2023/01/02 05:56:55;;;;;;;2.10;2.00;;;10.30;99.90;;;;;;5054163;28;20424;-71
2023/01/02 05:59:21;;;;;;;2.45;1.92;;;10.30;99.90;;;;;;5054701;28;20448;-71
2023/01/02 06:01:46;;;;;;;2.13;2.03;;;10.30;99.90;;;;;;5054727;28;20029;-71
2023/01/02 06:04:12;;;;;;;2.22;2.03;;;10.30;99.90;;;;;;5053874;28;20021;-72
2023/01/02 06:06:39;;;;;;;2.85;2.65;;;10.20;99.90;;;;;;5054039;28;20021;-71
2023/01/02 06:09:06;;;;;;;3.58;3.38;;;10.20;99.90;;;;;;5053542;28;20424;-71
2023/01/02 06:11:33;;;;;;;4.30;3.97;;;10.20;99.90;;;;;;5053755;28;20036;-71
2023/01/02 06:13:59;;;;;;;5.07;4.68;;;10.10;99.90;;;;;;5054283;28;20021;-72
2023/01/02 06:16:25;;;;;;;6.00;5.50;;;10.20;99.90;;;;;;5054055;28;20048;-71
2023/01/02 06:18:50;;;;;;;6.20;5.70;;;10.20;99.90;;;;;;5053115;28;20115;-70
2023/01/02 06:21:18;;;;;;;6.68;6.07;;;10.20;99.90;;;;;;5053979;28;20465;-71
2023/01/02 06:23:44;;;;;;;7.25;6.65;;;10.20;99.90;;;;;;5053555;28;20024;-70
2023/01/02 06:26:16;;;;;;;7.53;6.82;;;10.10;99.90;;;;;;5053793;28;20048;-70
2023/01/02 06:28:42;;;;;;;8.70;7.90;;;10.20;99.90;;;;;;5040772;28;20438;-71
2023/01/02 06:31:10;;;;;;;9.32;8.50;;;10.10;99.90;;;;;;5051748;28;20021;-71
2023/01/02 06:33:36;;;;;;;10.32;9.35;;;10.10;99.90;;;;;;5037195;28;20595;-71
2023/01/02 06:36:05;;;;;;;10.52;9.63;;;10.60;99.90;;;;;;5033306;28;20136;-72
2023/01/02 06:38:30;;;;;;;10.70;9.75;;;10.10;99.90;;;;;;5033442;28;20037;-72
2023/01/02 06:40:58;;;;;;;12.75;9.93;;;10.10;99.90;;;;;;5032740;28;20033;-71
2023/01/02 06:43:25;;;;;;;10.65;9.63;;;10.20;99.90;;;;;;5032053;28;20545;-71
2023/01/02 06:45:51;;;;;;;11.45;10.35;;;10.20;99.90;;;;;;5031954;28;20045;-72
2023/01/02 06:48:18;;;;;;;11.05;10.05;;;10.20;99.90;;;;;;5036970;28;20386;-71
2023/01/02 06:50:44;;;;;;;10.98;9.98;;;10.20;99.90;;;;;;5034608;28;20029;-71
2023/01/02 06:53:11;;;;;;;11.60;10.40;;;10.20;99.90;;;;;;5032029;28;20047;-71
2023/01/02 06:55:37;;;;;;;11.77;9.82;;;10.20;99.90;;;;;;5035571;28;20033;-70
2023/01/02 06:58:03;;;;;;;12.70;10.85;;;10.10;99.90;;;;;;5032692;28;20374;-70
2023/01/02 07:00:29;;;;;;;11.65;10.10;;;10.10;99.90;;;;;;5032080;28;20029;-71
2023/01/02 07:02:54;;;;;;;10.52;9.52;;;10.10;99.90;;;;;;5032033;28;20033;-71
2023/01/02 07:05:20;;;;;;;10.63;9.52;;;10.10;99.90;;;;;;5032644;28;20034;-71
2023/01/02 07:07:46;;;;;;;11.15;9.23;;;10.10;99.90;;;;;;5045561;28;20485;-72
2023/01/02 07:10:11;;;;;;;8.40;7.60;;;10.10;99.90;;;;;;5051408;28;20465;-72
2023/01/02 07:12:37;;;;;;;9.00;6.60;;;10.10;99.90;;;;;;5052924;28;20476;-71
2023/01/02 07:15:04;;;;;;;6.88;6.18;;;10.00;99.90;;;;;;5049564;28;20029;-71
2023/01/02 07:17:32;;;;;;;6.57;5.05;;;10.00;99.90;;;;;;5048239;28;20032;-72
2023/01/02 07:19:58;;;;;;;7.88;5.60;;;9.90;99.90;;;;;;5048125;28;20029;-71
2023/01/02 07:22:25;;;;;;;6.82;5.78;;;10.00;99.90;;;;;;5051362;28;20053;-71
2023/01/02 07:24:50;;;;;;;8.85;5.90;;;10.00;99.90;;;;;;5051564;28;20102;-72
2023/01/02 07:27:16;;;;;;;4.75;3.72;;;10.00;99.90;;;;;;5048046;28;20111;-71
2023/01/02 07:29:41;;;;;;;4.43;3.13;;;9.90;99.90;;;;;;5050017;28;20037;-71
2023/01/02 07:32:07;;;;;;;4.15;2.90;;;9.90;99.90;;;;;;5050839;28;20021;-71
2023/01/02 07:34:32;;;;;;;3.50;2.42;;;9.80;99.90;;;;;;5032027;28;20519;-71
2023/01/02 07:36:58;;;;;;;6.40;2.63;;;9.80;99.90;;;;;;5031945;28;20503;-72
2023/01/02 07:39:23;;;;;;;4.82;2.78;;;9.70;99.90;;;;;;5032394;28;20020;-71
2023/01/02 07:41:49;;;;;;;6.10;2.92;;;9.70;99.90;;;;;;5037157;28;20025;-71
2023/01/02 07:44:15;;;;;;;4.15;3.22;;;9.70;99.90;;;;;;5052473;28;20024;-71
2023/01/02 07:46:41;;;;;;;3.95;3.55;;;9.70;99.90;;;;;;5052374;28;20557;-72
2023/01/02 07:49:09;;;;;;;6.05;3.53;;;9.70;99.90;;;;;;5051318;28;20025;-72
2023/01/02 07:51:35;;;;;;;6.50;4.90;;;9.70;99.90;;;;;;5052754;28;20041;-71
2023/01/02 07:54:00;;;;;;;12.18;4.50;;;9.70;99.90;;;;;;5051954;28;20354;-71
2023/01/02 07:56:26;;;;;;;5.78;5.00;;;9.60;99.90;;;;;;5051399;28;20091;-72
2023/01/02 07:58:52;;;;;;;7.88;5.55;;;9.60;99.90;;;;;;5050060;28;20025;-72
2023/01/02 08:01:17;;;;;;;7.05;5.13;;;9.50;99.90;;;;;;5050113;28;20464;-71
2023/01/02 08:03:43;;;;;;;6.15;5.30;;;9.60;99.90;;;;;;5048589;28;20032;-71
2023/01/02 08:06:11;;;;;;;7.82;3.97;;;9.60;99.90;;;;;;5048079;28;20025;-71
2023/01/02 08:08:37;;;;;;;4.68;3.30;;;9.70;99.90;;;;;;5046396;28;20192;-71
2023/01/02 08:11:08;;;;;;;4.30;3.22;;;9.80;99.90;;;;;;5047858;28;20021;-71
2023/01/02 08:13:34;;;;;;;3.60;3.30;;;9.70;99.90;;;;;;5046431;28;20394;-71
2023/01/02 08:16:08;;;;;;;3.83;2.42;;;9.70;99.90;;;;;;5042048;28;20389;-72
2023/01/02 08:18:34;;;;;;;3.85;3.28;;;9.70;99.90;;;;;;5034142;28;20024;-71
2023/01/02 08:21:00;;;;;;;5.55;2.67;;;9.70;99.90;;;;;;5039472;28;20021;-70
2023/01/02 08:23:26;;;;;;;5.72;3.53;;;9.60;99.90;;;;;;5036016;28;20029;-71
2023/01/02 08:25:51;;;;;;;4.78;3.10;;;9.70;99.90;;;;;;5042903;28;20478;-71
2023/01/02 08:28:17;;;;;;;7.40;3.25;;;9.70;99.90;;;;;;5032127;28;20049;-71
2023/01/02 08:30:43;;;;;;;4.20;2.63;;;9.70;99.90;;;;;;5047235;28;20032;-71
2023/01/02 08:33:08;;;;;;;5.38;2.72;;;9.70;99.90;;;;;;5041956;28;20059;-71
2023/01/02 08:35:37;;;;;;;2.70;1.67;;;9.80;99.90;;;;;;5034770;28;20124;-71
2023/01/02 08:38:02;;;;;;;4.35;2.00;;;9.70;99.90;;;;;;5038676;28;20017;-72
2023/01/02 08:40:28;;;;;;;4.63;1.58;;;9.80;99.90;;;;;;5047547;28;20043;-70
2023/01/02 08:42:56;;;;;;;2.92;1.33;;;9.80;99.90;;;;;;5042731;28;20024;-68
2023/01/02 08:45:22;;;;;;;2.00;1.42;;;9.80;99.90;;;;;;5038041;28;20799;-70
2023/01/02 08:47:48;;;;;;;3.30;1.52;;;9.80;99.90;;;;;;5045190;28;20018;-70
2023/01/02 08:50:13;;;;;;;3.30;1.23;;;9.80;99.90;;;;;;5047340;28;20466;-71
2023/01/02 08:52:39;;;;;;;3.85;1.20;;;9.80;99.90;;;;;;5039285;28;20022;-71
2023/01/02 08:55:05;;;;;;;4.47;1.20;;;9.70;99.90;;;;;;5044168;28;20033;-70
2023/01/02 08:57:31;;;;;;;6.13;1.65;;;9.70;99.90;;;;;;5041960;28;20916;-70
2023/01/02 08:59:57;;;;;;;7.45;1.10;;;9.60;99.90;;;;;;5046881;28;20014;-71
2023/01/02 09:02:22;;;;;;;4.15;1.08;;;9.60;99.90;;;;;;5051470;28;20036;-70
2023/01/02 09:04:51;;;;;;;3.13;1.02;;;9.60;99.90;;;;;;5044123;28;20033;-71
2023/01/02 09:07:16;;;;;;;6.28;1.35;;;9.70;99.90;;;;;;5046912;28;20362;-70
2023/01/02 09:09:42;;;;;;;5.28;1.48;;;9.70;99.90;;;;;;5045370;28;20095;-72
2023/01/02 09:12:08;;;;;;;5.15;1.40;;;9.70;99.90;;;;;;5048063;28;20420;-72
2023/01/02 09:14:33;;;;;;;3.35;1.10;;;9.70;99.90;;;;;;5043030;28;20086;-72
2023/01/02 09:16:59;;;;;;;7.38;1.23;;;9.70;99.90;;;;;;5043215;28;20033;-71
2023/01/02 09:19:25;;;;;;;3.60;0.80;;;9.80;99.90;;;;;;5045543;28;20476;-72
2023/01/02 09:21:51;;;;;;;7.20;1.70;;;9.80;99.90;;;;;;5046505;28;20032;-71
2023/01/02 09:24:17;;;;;;;4.65;0.93;;;9.80;99.90;;;;;;5046874;28;20029;-71
2023/01/02 09:26:43;;;;;;;6.93;0.98;;;9.80;99.90;;;;;;5035992;28;20409;-70
2023/01/02 09:29:10;;;;;;;5.30;1.15;;;9.80;99.90;;;;;;5034413;28;20021;-70
2023/01/02 09:31:36;;;;;;;4.00;0.90;;;9.80;99.90;;;;;;5034929;28;20033;-71
2023/01/02 09:34:01;;;;;;;3.78;0.73;;;9.80;99.90;;;;;;5036375;28;20525;-70
2023/01/02 09:36:27;;;;;;;3.85;1.20;;;9.80;99.90;;;;;;5037431;28;20037;-68
2023/01/02 09:38:54;;;;;;;5.85;0.88;;;9.70;99.90;;;;;;5046216;28;20051;-68
2023/01/02 09:41:36;;;;;;;3.65;1.20;;;9.80;99.90;;;;;;5049317;28;20029;-68
2023/01/02 09:44:04;;;;;;;4.60;1.98;;;9.80;99.90;;;;;;5060385;28;20028;-73
2023/01/02 09:46:42;;;;;;;6.03;1.08;;;9.70;99.90;;;;;;5050593;28;20041;-70
2023/01/02 09:49:13;;;;;;;7.95;2.50;;;9.70;99.90;;;;;;5032706;28;20021;-71
2023/01/02 09:51:39;;;;;;;6.18;1.95;;;9.70;99.90;;;;;;5051553;28;20017;-71
2023/01/02 09:54:13;;;;;;;6.35;2.22;;;9.70;99.90;;;;;;5055208;28;20063;-71
2023/01/02 09:56:40;;;;;;;15.38;4.38;;;9.80;99.90;;;;;;5046802;28;20034;-71
2023/01/02 09:59:12;;;;;;;12.05;3.13;;;9.70;99.90;;;;;;5046060;28;20032;-71
2023/01/02 10:01:57;;;;;;;13.70;2.75;;;9.80;99.90;;;;;;5036147;28;20036;-71
2023/01/02 10:04:35;;;;;;;12.65;2.58;;;9.80;99.90;;;;;;5034787;28;20030;-71
2023/01/02 10:07:32;;;;;;;5.40;1.95;;;9.90;99.90;;;;;;5032743;28;20028;-70
2023/01/02 10:10:21;;;;;;;3.88;1.75;;;9.90;99.90;;;;;;5036875;28;20322;-71
2023/01/02 10:13:09;;;;;;;10.13;1.50;;;9.90;99.90;;;;;;5052233;28;20017;-72
2023/01/02 10:15:37;;;;;;;4.57;1.48;;;9.90;99.90;;;;;;5048390;28;20036;-69
2023/01/02 10:18:22;;;;;;;2.92;0.85;;;10.00;99.90;;;;;;5042310;28;20106;-70
2023/01/02 10:21:02;;;;;;;5.32;1.17;;;10.00;99.90;;;;;;5047756;28;20033;-70
2023/01/02 10:23:35;;;;;;;4.57;0.98;;;10.10;99.90;;;;;;5042728;28;20032;-70
2023/01/02 10:26:11;;;;;;;4.78;0.80;;;10.10;99.90;;;;;;5049201;28;20017;-70
2023/01/02 10:28:53;;;;;;;5.55;1.33;;;10.10;99.90;;;;;;5048468;28;20059;-70
2023/01/02 10:31:19;;;;;;;8.85;2.55;;;10.20;99.90;;;;;;5049208;28;20140;-70
2023/01/02 10:34:10;;;;;;;3.95;1.00;;;10.10;99.90;;;;;;5049861;28;20031;-70
2023/01/02 10:36:40;;;;;;;10.18;1.65;;;10.20;99.90;;;;;;5048708;28;20120;-70
2023/01/02 10:39:11;;;;;;;4.20;0.88;;;10.20;99.90;;;;;;5049408;28;20044;-70
2023/01/02 10:41:38;;;;;;;12.45;1.80;;;10.20;99.90;;;;;;5045832;28;20026;-70
2023/01/02 10:44:11;;;;;;;4.20;1.10;;;10.20;99.90;;;;;;5046374;28;20017;-71
2023/01/02 10:46:40;;;;;;;5.53;1.40;;;10.30;99.90;;;;;;5048353;28;20021;-71
2023/01/02 10:49:08;;;;;;;4.10;1.55;;;10.30;99.90;;;;;;5035584;28;20021;-71
2023/01/02 10:51:41;;;;;;;4.03;1.00;;;10.30;99.90;;;;;;5043972;28;20031;-72
2023/01/02 10:54:08;;;;;;;8.15;1.83;;;10.30;99.90;;;;;;5033535;28;20441;-72
2023/01/02 10:56:36;;;;;;;9.15;2.08;;;10.40;99.90;;;;;;5037062;28;20389;-72
2023/01/02 10:59:15;;;;;;;4.72;1.40;;;10.40;99.90;;;;;;5032880;28;20111;-72
2023/01/02 11:01:53;;;;;;;4.57;1.33;;;10.40;99.90;;;;;;5033219;28;20390;-71
2023/01/02 11:04:24;;;;;;;5.40;1.63;;;10.40;99.90;;;;;;5050059;28;20079;-71
2023/01/02 11:07:01;;;;;;;7.05;1.80;;;10.50;99.90;;;;;;5033557;28;20021;-70
2023/01/02 11:09:32;;;;;;;5.47;2.17;;;10.50;99.90;;;;;;5033633;28;20053;-72
2023/01/02 11:12:06;;;;;;;8.90;1.95;;;10.60;99.90;;;;;;5033575;28;20028;-71
2023/01/02 11:14:34;;;;;;;11.13;1.55;;;10.50;99.90;;;;;;5033523;28;20034;-72
2023/01/02 11:17:06;;;;;;;5.38;1.30;;;10.60;99.90;;;;;;5040182;28;20033;-72
2023/01/02 11:19:43;;;;;;;6.78;2.22;;;10.60;99.90;;;;;;5052077;28;20083;-71
2023/01/02 11:22:11;;;;;;;7.78;1.88;;;10.60;99.90;;;;;;5044655;28;20072;-71
2023/01/02 11:25:00;;;;;;;4.88;1.20;;;10.60;99.90;;;;;;5033294;28;20374;-73
2023/01/02 11:27:40;;;;;;;6.75;1.30;;;10.60;99.90;;;;;;5039152;28;20132;-70
2023/01/02 11:30:07;;;;;;;8.75;2.00;;;10.60;99.90;;;;;;5051745;28;20065;-71
2023/01/02 11:32:38;;;;;;;5.22;2.28;;;10.70;99.90;;;;;;5049815;28;20029;-73
2023/01/02 11:35:05;;;;;;;10.65;2.20;;;10.60;99.90;;;;;;5042836;28;20025;-72
2023/01/02 11:37:30;;;;;;;9.82;1.92;;;10.60;99.90;;;;;;5043258;28;20037;-73
2023/01/02 11:40:25;;;;;;;11.25;2.45;;;10.60;99.90;;;;;;5050686;28;20017;-72
2023/01/02 11:45:38;;;;;;;9.68;2.60;;;10.60;99.90;;;;;;5038814;28;20064;-71
2023/01/02 11:48:10;;;;;;;10.70;2.40;;;10.60;99.90;;;;;;5045849;28;20036;-72
2023/01/02 11:50:37;;;;;;;16.25;2.65;;;10.60;99.90;;;;;;5038934;28;20037;-71
2023/01/02 11:53:07;;;;;;;9.38;2.47;;;10.70;99.90;;;;;;5043424;28;20071;-71
2023/01/02 11:55:46;;;;;;;11.10;2.03;;;10.60;99.90;;;;;;5052361;28;20013;-74
2023/01/02 11:58:35;;;;;;;8.10;1.90;;;10.70;99.90;;;;;;5053342;28;20485;-72
2023/01/02 12:01:12;;;;;;;9.93;2.70;;;10.70;99.90;;;;;;5049881;28;20016;-72
2023/01/02 12:03:39;;;;;;;13.30;2.42;;;10.70;99.90;;;;;;5038985;28;20368;-74
2023/01/02 12:06:21;;;;;;;8.60;2.53;;;10.60;99.90;;;;;;5037142;28;20114;-73
2023/01/02 12:09:05;;;;;;;10.05;3.53;;;10.70;99.90;;;;;;5045136;28;20029;-72
2023/01/02 12:11:54;;;;;;;10.30;3.58;;;10.70;99.90;;;;;;5041369;28;20061;-68
2023/01/02 12:14:38;;;;;;;7.90;2.58;;;10.70;99.90;;;;;;5043921;28;20082;-71
2023/01/02 12:17:12;;;;;;;11.70;4.10;;;10.70;99.90;;;;;;5041090;28;20167;-72
2023/01/02 12:20:40;;;;;;;16.55;4.05;;;10.70;99.90;;;;;;5047077;28;20025;-72
2023/01/02 12:23:32;;;;;;;11.88;4.43;;;10.60;99.90;;;;;;4998853;28;20389;-72
2023/01/02 12:26:12;;;;;;;11.65;4.75;;;10.60;99.90;;;;;;5040348;28;20029;-72
2023/01/02 12:29:07;;;;;;;14.95;5.88;;;10.60;99.90;;;;;;5031963;28;20040;-71
2023/01/02 12:31:51;;;;;;;9.48;5.38;;;10.60;99.90;;;;;;5041478;28;20645;-73
2023/01/02 12:34:41;;;;;;;13.52;5.82;;;10.50;99.90;;;;;;5033304;28;20036;-72
2023/01/02 12:37:27;;;;;;;10.90;6.10;;;10.60;99.90;;;;;;5048939;28;20570;-75
2023/01/02 12:40:15;;;;;;;15.15;6.82;;;10.60;99.90;;;;;;5042589;28;20032;-73
2023/01/02 12:43:02;;;;;;;10.25;5.80;;;10.60;99.90;;;;;;5032960;28;20116;-72
2023/01/02 12:45:44;;;;;;;13.10;6.25;;;10.50;99.90;;;;;;5037351;28;20108;-70
2023/01/02 12:48:38;;;;;;;12.32;6.82;;;10.50;99.90;;;;;;5038321;28;20036;-71
2023/01/02 12:51:22;;;;;;;9.25;5.85;;;10.40;99.90;;;;;;5041945;28;20018;-70
2023/01/02 12:54:21;;;;;;;12.25;6.63;;;10.50;99.90;;;;;;5044697;28;20505;-73
2023/01/02 12:57:08;;;;;;;14.52;6.90;;;10.40;99.90;;;;;;5031165;28;20033;-72
2023/01/02 12:59:59;;;;;;;11.77;6.93;;;10.40;99.90;;;;;;5031504;28;20026;-72
2023/01/02 13:02:50;;;;;;;14.13;7.43;;;10.40;99.90;;;;;;5054247;28;20028;-72
2023/01/02 13:05:24;;;;;;;10.98;7.25;;;10.40;99.90;;;;;;5053049;28;20030;-72
2023/01/02 13:07:54;;;;;;;14.50;6.90;;;10.40;99.90;;;;;;5053628;28;20029;-72
2023/01/02 13:10:23;;;;;;;14.27;7.32;;;10.30;99.90;;;;;;5053646;28;20075;-72
2023/01/02 13:12:50;;;;;;;12.25;7.90;;;10.30;99.90;;;;;;5051648;28;20029;-71